Time;durP1;ratioP1;P1;durP2;ratioP2;P2;SDS_P1;SDS_P2;PMS_P1;PMS_P2;Temp;Humidity;BMP_temperature;BMP_pressure;BME280_temperature;BME280_humidity;BME280_pressure;Samples;Min_cycle;Max_cycle;Signal;HPM_P1;HPM_P2
2023/09/21 00:01:28;;;;;;;3.78;1.90;;;18.50;90.30;;;;;;5060306;28;20428;-75
2023/09/21 00:03:55;;;;;;;2.97;1.98;;;18.40;90.40;;;;;;5064379;28;20549;-75
2023/09/21 00:06:22;;;;;;;2.85;2.20;;;18.40;90.30;;;;;;5064246;28;20830;-75
2023/09/21 00:08:49;;;;;;;3.10;1.77;;;18.40;90.20;;;;;;5061786;28;20463;-75
2023/09/21 00:11:16;;;;;;;2.90;1.80;;;18.50;90.20;;;;;;5064186;28;20506;-75
2023/09/21 00:13:44;;;;;;;3.05;2.00;;;18.50;90.30;;;;;;5058436;28;20442;-75
2023/09/21 00:16:12;;;;;;;2.80;1.83;;;18.40;90.20;;;;;;5062943;28;20425;-75
2023/09/21 00:18:42;;;;;;;2.63;1.80;;;18.50;90.20;;;;;;5062351;28;20439;-75
2023/09/21 00:21:08;;;;;;;2.65;1.75;;;18.40;90.20;;;;;;5066721;28;20435;-75
2023/09/21 00:23:36;;;;;;;2.25;1.67;;;18.40;90.40;;;;;;5063176;28;20431;-75
2023/09/21 00:26:04;;;;;;;3.53;1.65;;;18.40;90.40;;;;;;5065040;28;20588;-75
2023/09/21 00:28:32;;;;;;;2.60;2.00;;;18.40;90.40;;;;;;5061130;28;20438;-75
2023/09/21 00:31:02;;;;;;;2.95;2.08;;;18.40;90.40;;;;;;5061453;28;20454;-75
2023/09/21 00:33:30;;;;;;;3.20;1.90;;;18.40;90.40;;;;;;5061913;28;20549;-75
2023/09/21 00:35:58;;;;;;;2.40;1.80;;;18.40;90.60;;;;;;5051640;28;20437;-75
2023/09/21 00:38:25;;;;;;;2.60;1.80;;;18.40;90.60;;;;;;5060364;28;20435;-75
2023/09/21 00:40:58;;;;;;;3.58;2.00;;;18.30;90.70;;;;;;5062883;28;20450;-75
2023/09/21 00:43:25;;;;;;;2.05;1.80;;;18.30;90.80;;;;;;5062284;28;20512;-75
2023/09/21 00:45:53;;;;;;;2.90;1.60;;;18.30;90.70;;;;;;5061640;28;20905;-75
2023/09/21 00:48:22;;;;;;;2.90;1.60;;;18.30;90.60;;;;;;5061513;28;20454;-75
2023/09/21 00:50:51;;;;;;;2.90;1.50;;;18.30;90.40;;;;;;5063024;28;20545;-75
2023/09/21 00:53:19;;;;;;;2.35;1.88;;;18.30;90.20;;;;;;5068678;28;20591;-74
2023/09/21 00:55:48;;;;;;;3.40;1.90;;;18.30;90.00;;;;;;5061407;28;20533;-75
2023/09/21 00:58:16;;;;;;;2.60;1.75;;;18.30;90.00;;;;;;5060877;28;20435;-75
2023/09/21 01:00:44;;;;;;;2.77;2.00;;;18.30;89.80;;;;;;5063206;28;20966;-75
2023/09/21 01:03:12;;;;;;;2.35;1.70;;;18.30;89.50;;;;;;5061626;28;20907;-75
2023/09/21 01:05:41;;;;;;;3.43;1.70;;;18.30;89.60;;;;;;5065501;28;20779;-75
2023/09/21 01:08:10;;;;;;;2.17;1.53;;;18.30;89.40;;;;;;5064561;28;20456;-75
2023/09/21 01:10:39;;;;;;;2.65;1.70;;;18.30;89.50;;;;;;5064844;28;21719;-75
2023/09/21 01:13:07;;;;;;;2.30;1.70;;;18.30;89.40;;;;;;5070356;28;20419;-75
2023/09/21 01:15:34;;;;;;;2.60;1.77;;;18.30;89.60;;;;;;5068059;28;20598;-75
2023/09/21 01:18:01;;;;;;;2.63;1.90;;;18.30;89.80;;;;;;5072856;28;20411;-75
2023/09/21 01:20:32;;;;;;;2.00;1.70;;;18.30;89.90;;;;;;5067588;28;20435;-76
2023/09/21 01:23:11;;;;;;;2.70;1.90;;;18.30;90.00;;;;;;5060926;28;20489;-75
2023/09/21 01:25:40;;;;;;;2.90;1.50;;;18.30;90.00;;;;;;5064702;28;21029;-75
2023/09/21 01:28:09;;;;;;;2.40;1.85;;;18.20;90.20;;;;;;5064910;28;20419;-75
2023/09/21 01:30:37;;;;;;;3.00;1.70;;;18.20;90.20;;;;;;5064801;28;20514;-75
2023/09/21 01:33:08;;;;;;;5.28;1.77;;;18.20;90.30;;;;;;5063823;28;20520;-75
2023/09/21 01:35:36;;;;;;;2.63;1.83;;;18.20;90.30;;;;;;5068462;28;20458;-75
2023/09/21 01:38:04;;;;;;;3.80;2.00;;;18.20;90.50;;;;;;5063419;28;20656;-75
2023/09/21 01:40:30;;;;;;;3.03;1.73;;;18.20;90.50;;;;;;5065375;28;20428;-75
2023/09/21 01:42:59;;;;;;;2.30;1.55;;;18.20;90.70;;;;;;5066636;28;20412;-75
2023/09/21 01:45:26;;;;;;;2.60;1.80;;;18.20;90.70;;;;;;5064683;28;21185;-75
2023/09/21 01:47:53;;;;;;;2.70;1.65;;;18.20;90.80;;;;;;5064765;28;20981;-75
2023/09/21 01:50:21;;;;;;;2.95;1.80;;;18.10;90.80;;;;;;5067417;28;20435;-75
2023/09/21 01:52:48;;;;;;;2.83;2.00;;;18.10;90.90;;;;;;5065224;28;20437;-75
2023/09/21 01:55:17;;;;;;;3.20;2.25;;;18.10;90.90;;;;;;5058850;28;20526;-75
2023/09/21 01:57:44;;;;;;;2.92;1.80;;;18.10;91.10;;;;;;5063811;28;20412;-75
2023/09/21 02:00:21;;;;;;;2.80;1.90;;;18.10;91.00;;;;;;5064986;28;20419;-75
2023/09/21 02:02:48;;;;;;;2.67;2.00;;;18.00;91.00;;;;;;5057918;28;20427;-75
2023/09/21 02:05:15;;;;;;;2.93;1.80;;;18.00;91.10;;;;;;5065501;28;20888;-75
2023/09/21 02:07:43;;;;;;;2.90;1.90;;;18.00;91.20;;;;;;5065223;28;20438;-75
2023/09/21 02:10:11;;;;;;;3.33;1.85;;;18.00;91.40;;;;;;5064755;28;20431;-75
2023/09/21 02:12:38;;;;;;;3.05;1.98;;;17.90;91.30;;;;;;5063570;28;20502;-75
2023/09/21 02:15:09;;;;;;;2.20;1.60;;;17.90;91.30;;;;;;5064209;28;20521;-75
2023/09/21 02:17:39;;;;;;;3.47;1.80;;;17.90;91.40;;;;;;5064393;28;20902;-75
2023/09/21 02:20:13;;;;;;;3.00;1.90;;;17.90;91.50;;;;;;5061354;28;20431;-75
2023/09/21 02:22:41;;;;;;;3.08;2.00;;;17.80;91.40;;;;;;5064838;28;20434;-75
2023/09/21 02:25:11;;;;;;;2.67;2.00;;;17.80;91.50;;;;;;5066511;28;20763;-74
2023/09/21 02:27:39;;;;;;;2.67;2.10;;;17.80;91.60;;;;;;5061875;28;20514;-75
2023/09/21 02:30:08;;;;;;;2.67;1.70;;;17.80;91.70;;;;;;5058500;28;20412;-75
2023/09/21 02:32:35;;;;;;;2.38;2.03;;;17.80;91.90;;;;;;5065844;28;20498;-75
2023/09/21 02:35:07;;;;;;;2.65;1.85;;;17.80;92.00;;;;;;5064729;28;20950;-75
2023/09/21 02:37:34;;;;;;;2.60;2.03;;;17.80;92.20;;;;;;5061661;28;20443;-75
2023/09/21 02:40:01;;;;;;;2.85;1.90;;;17.70;92.40;;;;;;5063885;28;20432;-75
2023/09/21 02:42:28;;;;;;;2.63;2.00;;;17.70;92.40;;;;;;5062753;28;20763;-75
2023/09/21 02:44:55;;;;;;;2.70;2.30;;;17.70;92.20;;;;;;5061376;28;20422;-74
2023/09/21 02:47:23;;;;;;;3.28;1.98;;;17.70;92.10;;;;;;5061877;28;20435;-75
2023/09/21 02:49:51;;;;;;;2.17;1.93;;;17.70;92.20;;;;;;5065242;28;20432;-75
2023/09/21 02:52:20;;;;;;;2.50;1.80;;;17.70;92.30;;;;;;5064217;28;20427;-75
2023/09/21 02:54:47;;;;;;;3.33;2.00;;;17.70;92.80;;;;;;5060074;28;20501;-75
2023/09/21 02:57:14;;;;;;;2.40;2.00;;;17.60;92.50;;;;;;5062738;28;20590;-75
2023/09/21 02:59:41;;;;;;;3.03;1.90;;;17.60;92.70;;;;;;5062629;28;20438;-75
2023/09/21 03:02:09;;;;;;;2.00;1.80;;;17.60;92.70;;;;;;5063886;28;20443;-75
2023/09/21 03:04:35;;;;;;;2.83;2.00;;;17.60;92.70;;;;;;5062773;28;20591;-75
2023/09/21 03:07:03;;;;;;;2.50;2.03;;;17.50;92.50;;;;;;5063136;28;20408;-75
2023/09/21 03:09:31;;;;;;;4.03;2.10;;;17.50;92.60;;;;;;5062978;28;20551;-75
2023/09/21 03:11:59;;;;;;;2.97;1.77;;;17.50;92.60;;;;;;5061182;28;20441;-75
2023/09/21 03:14:28;;;;;;;3.10;1.75;;;17.50;92.60;;;;;;5061961;28;20431;-75
2023/09/21 03:16:55;;;;;;;2.90;2.08;;;17.50;92.60;;;;;;5062211;28;20428;-75
2023/09/21 03:19:22;;;;;;;2.40;2.00;;;17.50;92.50;;;;;;5061880;28;20431;-75
2023/09/21 03:21:49;;;;;;;2.93;2.00;;;17.50;92.40;;;;;;5062890;28;20858;-74
2023/09/21 03:24:17;;;;;;;2.90;1.90;;;17.50;92.40;;;;;;5065969;28;20440;-74
2023/09/21 03:26:46;;;;;;;2.10;1.70;;;17.50;92.40;;;;;;5062569;28;20431;-74
2023/09/21 03:29:12;;;;;;;3.15;2.00;;;17.50;92.50;;;;;;5062487;28;20421;-74
2023/09/21 03:31:39;;;;;;;3.87;1.90;;;17.50;92.50;;;;;;5058813;28;20897;-74
2023/09/21 03:34:06;;;;;;;2.22;1.83;;;17.50;92.60;;;;;;5058763;28;20538;-75
2023/09/21 03:36:36;;;;;;;3.13;1.90;;;17.50;92.70;;;;;;5060618;28;20523;-75
2023/09/21 03:39:09;;;;;;;2.30;2.00;;;17.50;92.70;;;;;;5062347;28;20439;-75
2023/09/21 03:41:36;;;;;;;2.70;1.70;;;17.50;92.60;;;;;;5063716;28;20930;-74
2023/09/21 03:44:06;;;;;;;2.10;1.90;;;17.50;92.00;;;;;;5063098;28;20439;-74
2023/09/21 03:46:33;;;;;;;2.25;1.80;;;17.50;91.90;;;;;;5067864;28;20438;-75
2023/09/21 03:49:00;;;;;;;2.50;1.80;;;17.50;91.70;;;;;;5062242;28;20786;-74
2023/09/21 03:51:27;;;;;;;2.70;2.20;;;17.50;91.60;;;;;;5060364;28;20870;-74
2023/09/21 03:53:54;;;;;;;2.40;1.80;;;17.50;91.50;;;;;;5062682;28;20431;-74
2023/09/21 03:56:22;;;;;;;2.88;2.10;;;17.50;91.30;;;;;;5064431;28;20515;-74
2023/09/21 03:58:49;;;;;;;3.85;2.22;;;17.50;91.50;;;;;;5058308;28;20536;-74
2023/09/21 04:01:17;;;;;;;2.50;1.80;;;17.50;91.40;;;;;;5057152;28;20435;-74
2023/09/21 04:03:44;;;;;;;2.60;2.00;;;17.50;91.70;;;;;;5061291;28;20416;-75
2023/09/21 04:06:11;;;;;;;3.00;2.10;;;17.50;91.90;;;;;;5060495;28;20428;-74
2023/09/21 04:08:38;;;;;;;2.60;2.00;;;17.50;92.20;;;;;;5061461;28;20435;-74
2023/09/21 04:11:05;;;;;;;2.53;1.90;;;17.50;92.70;;;;;;5060566;28;20592;-74
2023/09/21 04:13:32;;;;;;;3.88;1.90;;;17.50;92.30;;;;;;5058343;28;20411;-74
2023/09/21 04:15:59;;;;;;;2.27;2.00;;;17.60;92.40;;;;;;5059776;28;20780;-74
2023/09/21 04:18:27;;;;;;;2.50;1.77;;;17.50;92.30;;;;;;5065122;28;20509;-74
2023/09/21 04:20:54;;;;;;;2.15;1.77;;;17.50;92.20;;;;;;5060774;28;20439;-75
2023/09/21 04:23:24;;;;;;;2.80;2.00;;;17.50;92.10;;;;;;5062312;28;20937;-74
2023/09/21 04:25:51;;;;;;;3.47;2.00;;;17.50;92.10;;;;;;5057278;28;20514;-74
2023/09/21 04:28:18;;;;;;;2.65;2.00;;;17.50;91.90;;;;;;5060041;28;20491;-74
2023/09/21 04:30:45;;;;;;;2.37;1.90;;;17.50;92.00;;;;;;5062555;28;20444;-74
2023/09/21 04:33:12;;;;;;;4.20;1.90;;;17.50;92.20;;;;;;5060854;28;20687;-74
2023/09/21 04:35:40;;;;;;;2.42;1.75;;;17.50;92.10;;;;;;5060297;28;20457;-74
2023/09/21 04:38:08;;;;;;;3.30;2.10;;;17.50;92.20;;;;;;5062560;28;20826;-74
2023/09/21 04:40:35;;;;;;;2.50;1.90;;;17.50;92.30;;;;;;5065097;28;20861;-74
2023/09/21 04:43:02;;;;;;;2.20;1.80;;;17.50;92.40;;;;;;5063801;28;20518;-74
2023/09/21 04:45:28;;;;;;;2.40;1.63;;;17.50;92.50;;;;;;5042200;28;20531;-72
2023/09/21 04:48:00;;;;;;;2.40;2.17;;;17.50;92.50;;;;;;5039229;28;20423;-74
2023/09/21 04:50:27;;;;;;;2.20;1.88;;;17.50;92.50;;;;;;5035180;28;20942;-73
2023/09/21 04:52:55;;;;;;;3.30;2.05;;;17.50;92.50;;;;;;5037457;28;20417;-72
2023/09/21 04:55:22;;;;;;;2.40;1.90;;;17.50;92.30;;;;;;4971915;28;1775437;-74
2023/09/21 04:57:49;;;;;;;2.60;1.70;;;17.50;92.20;;;;;;5037398;28;20434;-73
2023/09/21 05:00:16;;;;;;;2.45;1.80;;;17.50;92.10;;;;;;5037478;28;20913;-72
2023/09/21 05:02:44;;;;;;;2.65;1.67;;;17.50;92.10;;;;;;5032877;28;20756;-73
2023/09/21 05:05:13;;;;;;;2.88;2.00;;;17.50;92.00;;;;;;5035160;28;21975;-74
2023/09/21 05:07:40;;;;;;;2.00;1.80;;;17.50;92.20;;;;;;5037009;28;20448;-74
2023/09/21 05:10:11;;;;;;;4.00;2.20;;;17.50;92.20;;;;;;5038382;28;20450;-73
2023/09/21 05:12:38;;;;;;;2.90;2.00;;;17.50;92.40;;;;;;5037405;28;20518;-72
2023/09/21 05:15:08;;;;;;;2.80;1.90;;;17.50;92.40;;;;;;5052012;28;20442;-72
2023/09/21 05:17:36;;;;;;;2.60;2.00;;;17.50;92.60;;;;;;5062004;28;20485;-71
2023/09/21 05:20:04;;;;;;;4.05;2.15;;;17.50;92.60;;;;;;5064284;28;20435;-71
2023/09/21 05:22:32;;;;;;;3.28;1.85;;;17.50;92.50;;;;;;5061420;28;20442;-71
2023/09/21 05:24:59;;;;;;;3.63;2.13;;;17.50;92.20;;;;;;5064773;28;20492;-71
2023/09/21 05:27:29;;;;;;;2.50;2.00;;;17.50;92.30;;;;;;5067181;28;20435;-71
2023/09/21 05:29:57;;;;;;;2.90;1.90;;;17.50;92.10;;;;;;5065728;28;20543;-71
2023/09/21 05:32:23;;;;;;;4.07;2.22;;;17.50;92.20;;;;;;5060967;28;20568;-71
2023/09/21 05:34:51;;;;;;;3.25;2.03;;;17.50;92.10;;;;;;5063351;28;20436;-71
2023/09/21 05:37:18;;;;;;;2.50;1.90;;;17.50;92.20;;;;;;5066542;28;20415;-72
2023/09/21 05:39:45;;;;;;;2.20;2.00;;;17.50;92.10;;;;;;5065566;28;20776;-72
2023/09/21 05:42:12;;;;;;;2.30;1.90;;;17.50;92.10;;;;;;5062513;28;20475;-72
2023/09/21 05:44:41;;;;;;;2.40;1.90;;;17.60;92.10;;;;;;5068630;28;20429;-72
2023/09/21 05:47:08;;;;;;;3.53;2.08;;;17.60;92.20;;;;;;5064527;28;20424;-71
2023/09/21 05:49:36;;;;;;;3.33;2.17;;;17.70;92.40;;;;;;5067095;28;20766;-72
2023/09/21 05:52:03;;;;;;;3.70;1.90;;;17.70;92.40;;;;;;5067785;28;20435;-71
2023/09/21 05:54:30;;;;;;;2.70;2.20;;;17.80;92.30;;;;;;5068713;28;20415;-72
2023/09/21 05:56:57;;;;;;;2.88;1.98;;;17.80;92.00;;;;;;5066263;28;20487;-72
2023/09/21 05:59:24;;;;;;;3.80;2.08;;;17.80;91.90;;;;;;5065886;28;20434;-71
2023/09/21 06:01:53;;;;;;;3.30;2.10;;;17.80;91.90;;;;;;5059626;28;20439;-71
2023/09/21 06:04:21;;;;;;;5.05;2.38;;;17.80;91.90;;;;;;5066511;28;20424;-72
2023/09/21 06:06:48;;;;;;;2.80;2.30;;;17.80;92.10;;;;;;5065608;28;20431;-72
2023/09/21 06:09:19;;;;;;;2.30;1.90;;;17.90;92.10;;;;;;5063503;28;20431;-72
2023/09/21 06:11:45;;;;;;;2.40;2.00;;;17.90;92.10;;;;;;5062730;28;20427;-72
2023/09/21 06:14:12;;;;;;;3.00;1.90;;;17.90;92.00;;;;;;5064458;28;20920;-71
2023/09/21 06:16:41;;;;;;;3.00;2.10;;;18.00;91.70;;;;;;5065972;28;20431;-72
2023/09/21 06:19:11;;;;;;;2.67;1.93;;;18.00;91.70;;;;;;5062028;28;20926;-72
2023/09/21 06:21:37;;;;;;;2.53;2.00;;;18.10;91.40;;;;;;5062591;28;20539;-72
2023/09/21 06:24:05;;;;;;;2.50;1.83;;;18.20;91.40;;;;;;5062069;28;20483;-72
2023/09/21 06:26:31;;;;;;;2.50;1.80;;;18.20;91.10;;;;;;5066459;28;20836;-72
2023/09/21 06:28:59;;;;;;;3.93;2.17;;;18.30;91.00;;;;;;5066147;28;20428;-72
2023/09/21 06:31:25;;;;;;;2.80;1.80;;;18.30;91.00;;;;;;5063886;28;20431;-72
2023/09/21 06:33:53;;;;;;;3.65;2.20;;;18.40;90.70;;;;;;5070052;28;20435;-72
2023/09/21 06:36:21;;;;;;;2.70;1.87;;;18.40;90.60;;;;;;5063134;28;20909;-72
2023/09/21 06:38:49;;;;;;;2.85;2.00;;;18.50;90.40;;;;;;5064379;28;20418;-72
2023/09/21 06:41:16;;;;;;;2.70;1.92;;;18.60;90.40;;;;;;5064364;28;20511;-72
2023/09/21 06:43:44;;;;;;;2.90;2.03;;;18.70;90.40;;;;;;5063839;28;20451;-72
2023/09/21 06:46:11;;;;;;;3.20;1.90;;;18.80;90.10;;;;;;5064018;28;20900;-72
2023/09/21 06:48:38;;;;;;;2.05;1.75;;;18.90;89.50;;;;;;5060505;28;20451;-72
2023/09/21 06:51:06;;;;;;;2.83;2.03;;;18.90;89.10;;;;;;5064653;28;20417;-72
2023/09/21 06:53:34;;;;;;;2.42;1.80;;;19.00;89.60;;;;;;5061641;28;21061;-72
2023/09/21 06:56:01;;;;;;;3.00;1.90;;;19.00;88.70;;;;;;5065046;28;20421;-72
2023/09/21 06:58:30;;;;;;;2.65;1.90;;;19.10;88.70;;;;;;5065024;28;20450;-72
2023/09/21 07:00:57;;;;;;;2.20;1.80;;;19.10;88.30;;;;;;5059254;28;20423;-72
2023/09/21 07:03:24;;;;;;;3.67;2.00;;;19.20;89.60;;;;;;5067576;28;20429;-72
2023/09/21 07:05:51;;;;;;;4.32;2.00;;;19.10;88.40;;;;;;5062015;28;20447;-72
2023/09/21 07:08:18;;;;;;;4.10;1.80;;;19.20;88.80;;;;;;5067169;28;20863;-73
2023/09/21 07:10:48;;;;;;;2.90;2.25;;;19.20;88.00;;;;;;5066753;28;20450;-73
2023/09/21 07:13:18;;;;;;;2.70;2.20;;;19.30;88.20;;;;;;5063371;28;20529;-73
2023/09/21 07:15:45;;;;;;;2.67;1.80;;;19.40;87.70;;;;;;5050962;28;20997;-73
2023/09/21 07:18:12;;;;;;;2.55;1.70;;;19.50;87.50;;;;;;5056537;28;20416;-73
2023/09/21 07:20:39;;;;;;;2.80;1.80;;;19.60;86.80;;;;;;5052102;28;20437;-73
2023/09/21 07:23:06;;;;;;;2.40;1.90;;;19.80;86.00;;;;;;5063286;28;20432;-73
2023/09/21 07:25:32;;;;;;;2.95;2.00;;;19.80;86.00;;;;;;5067238;28;20581;-72
2023/09/21 07:28:01;;;;;;;2.90;2.22;;;20.00;85.30;;;;;;5060803;28;20435;-72
2023/09/21 07:30:28;;;;;;;2.50;1.90;;;20.00;85.20;;;;;;5061641;28;20467;-72
2023/09/21 07:32:56;;;;;;;2.63;1.88;;;20.00;85.30;;;;;;5062900;28;20518;-72
2023/09/21 07:35:23;;;;;;;2.80;1.80;;;20.00;85.10;;;;;;5059047;28;20526;-73
2023/09/21 07:37:51;;;;;;;2.58;2.17;;;20.00;85.70;;;;;;5060887;28;20766;-72
2023/09/21 07:40:18;;;;;;;2.80;1.90;;;20.10;85.70;;;;;;5061313;28;20464;-73
2023/09/21 07:42:45;;;;;;;3.60;2.00;;;20.20;86.00;;;;;;5064090;28;20435;-73
2023/09/21 07:45:14;;;;;;;3.75;1.80;;;20.30;85.10;;;;;;5062278;28;20427;-73
2023/09/21 07:47:40;;;;;;;2.88;2.13;;;20.40;84.50;;;;;;5063593;28;20426;-73
2023/09/21 07:50:08;;;;;;;2.17;1.70;;;20.60;83.90;;;;;;5055103;28;20785;-74
2023/09/21 07:52:36;;;;;;;2.25;1.80;;;20.70;83.50;;;;;;5060509;28;20451;-73
2023/09/21 07:55:05;;;;;;;3.20;1.90;;;20.80;83.70;;;;;;5061899;28;20561;-73
2023/09/21 07:57:33;;;;;;;2.00;1.80;;;20.80;82.60;;;;;;5064192;28;20694;-73
2023/09/21 08:00:00;;;;;;;2.40;1.70;;;20.80;82.00;;;;;;5061158;28;20453;-72
2023/09/21 08:02:28;;;;;;;3.55;1.67;;;20.70;82.70;;;;;;5058872;28;20519;-72
2023/09/21 08:04:56;;;;;;;3.78;1.80;;;20.50;83.70;;;;;;5060068;28;20442;-73
2023/09/21 08:07:26;;;;;;;3.20;2.00;;;20.50;84.10;;;;;;5062812;28;20507;-72
2023/09/21 08:09:54;;;;;;;2.97;1.80;;;20.70;83.90;;;;;;5054903;28;20891;-73
2023/09/21 08:12:21;;;;;;;3.03;2.05;;;20.70;83.50;;;;;;5061956;28;20520;-73
2023/09/21 08:14:47;;;;;;;2.00;1.70;;;20.80;83.50;;;;;;5064479;28;20915;-73
2023/09/21 08:17:14;;;;;;;2.20;1.60;;;20.80;83.30;;;;;;5064570;28;20427;-73
2023/09/21 08:19:42;;;;;;;4.10;2.28;;;20.80;83.50;;;;;;5060995;28;20453;-72
2023/09/21 08:22:09;;;;;;;4.18;1.60;;;20.70;83.60;;;;;;5062488;28;20407;-73
2023/09/21 08:24:36;;;;;;;2.05;1.80;;;20.70;84.20;;;;;;5063479;28;20451;-73
2023/09/21 08:27:03;;;;;;;3.33;1.92;;;20.70;84.60;;;;;;5066710;28;20882;-73
2023/09/21 08:29:30;;;;;;;2.53;2.05;;;20.60;85.00;;;;;;5063487;28;20432;-73
2023/09/21 08:31:57;;;;;;;2.42;1.80;;;20.60;85.60;;;;;;5064518;28;20470;-73
2023/09/21 08:34:25;;;;;;;4.07;1.90;;;20.50;86.30;;;;;;5063978;28;20440;-72
2023/09/21 08:36:53;;;;;;;3.35;1.80;;;20.50;86.90;;;;;;5060548;28;20495;-73
2023/09/21 08:39:19;;;;;;;2.55;1.80;;;20.50;87.30;;;;;;5063108;28;21051;-73
2023/09/21 08:41:49;;;;;;;3.15;1.95;;;20.50;87.60;;;;;;5066431;28;20430;-73
2023/09/21 08:44:17;;;;;;;2.80;2.10;;;20.50;87.40;;;;;;5063947;28;20505;-73
2023/09/21 08:46:45;;;;;;;3.97;2.00;;;20.40;87.30;;;;;;5066666;28;20424;-72
2023/09/21 08:49:14;;;;;;;4.72;2.45;;;20.40;87.70;;;;;;5065344;28;20431;-73
2023/09/21 08:51:42;;;;;;;3.80;2.00;;;20.50;87.80;;;;;;5063552;28;21847;-72
2023/09/21 08:54:13;;;;;;;3.10;2.30;;;20.60;88.20;;;;;;5068869;28;20460;-73
2023/09/21 08:56:42;;;;;;;3.30;2.10;;;20.70;87.00;;;;;;5064759;28;20435;-73
2023/09/21 08:59:09;;;;;;;3.00;2.30;;;20.80;86.70;;;;;;5068275;28;21005;-73
2023/09/21 09:01:36;;;;;;;2.78;2.10;;;20.90;86.20;;;;;;5061716;28;20914;-73
2023/09/21 09:04:03;;;;;;;2.60;1.90;;;21.00;85.70;;;;;;5065591;28;20431;-73
2023/09/21 09:06:30;;;;;;;3.17;2.10;;;21.20;85.70;;;;;;5063111;28;20982;-73
2023/09/21 09:08:57;;;;;;;2.70;1.90;;;21.30;84.80;;;;;;5066646;28;20451;-73
2023/09/21 09:11:35;;;;;;;2.25;1.95;;;21.30;84.30;;;;;;5062919;28;20523;-73
2023/09/21 09:14:02;;;;;;;3.83;2.10;;;21.40;84.40;;;;;;5066789;28;20454;-73
2023/09/21 09:16:30;;;;;;;2.08;1.70;;;21.40;84.40;;;;;;5098384;22;20774;-67
2023/09/21 09:18:58;;;;;;;4.03;2.40;;;21.40;83.80;;;;;;5081732;28;20422;-67
2023/09/21 09:21:25;;;;;;;3.15;1.98;;;21.50;84.20;;;;;;5087257;28;20433;-67
2023/09/21 09:23:52;;;;;;;3.92;2.35;;;21.40;83.70;;;;;;5084177;28;20457;-67
2023/09/21 09:26:19;;;;;;;3.20;1.80;;;21.50;84.00;;;;;;5085386;28;20506;-67
2023/09/21 09:28:47;;;;;;;2.88;2.35;;;21.50;83.70;;;;;;5074218;28;20466;-67
2023/09/21 09:31:17;;;;;;;2.78;2.00;;;21.50;84.20;;;;;;5067793;28;20431;-68
2023/09/21 09:33:46;;;;;;;6.30;2.38;;;21.60;83.30;;;;;;5069917;28;20435;-67
2023/09/21 09:36:13;;;;;;;5.45;2.30;;;21.60;83.80;;;;;;5076960;28;20435;-67
2023/09/21 09:38:41;;;;;;;3.30;2.10;;;21.70;82.90;;;;;;5072848;28;20495;-67
2023/09/21 09:41:11;;;;;;;3.53;2.05;;;21.70;82.80;;;;;;5069971;28;20439;-67
2023/09/21 09:43:39;;;;;;;3.28;1.90;;;21.70;83.20;;;;;;5071239;28;20427;-67
2023/09/21 09:46:12;;;;;;;3.40;2.07;;;21.80;82.60;;;;;;5072090;28;20439;-68
2023/09/21 09:48:40;;;;;;;3.10;2.00;;;21.80;82.80;;;;;;5074268;28;20465;-68
2023/09/21 09:51:11;;;;;;;3.58;1.90;;;21.80;82.40;;;;;;5071708;28;20420;-68
2023/09/21 09:53:39;;;;;;;3.55;2.47;;;21.70;82.70;;;;;;5073411;28;20430;-67
2023/09/21 09:56:08;;;;;;;3.30;2.20;;;21.70;83.10;;;;;;5070151;28;20439;-69
2023/09/21 09:58:37;;;;;;;4.00;2.53;;;21.70;83.30;;;;;;5072977;28;20481;-69
2023/09/21 10:01:07;;;;;;;3.03;2.33;;;21.80;82.70;;;;;;5071449;28;20746;-69
2023/09/21 10:03:38;;;;;;;4.77;2.50;;;21.70;82.80;;;;;;5072400;28;20917;-68
2023/09/21 10:06:08;;;;;;;4.45;2.30;;;21.80;83.80;;;;;;5077435;28;20518;-69
2023/09/21 10:08:36;;;;;;;2.90;2.25;;;21.80;82.70;;;;;;5075168;28;20429;-68
2023/09/21 10:11:06;;;;;;;3.55;2.20;;;21.90;83.40;;;;;;5073870;28;20436;-68
2023/09/21 10:13:35;;;;;;;2.25;2.05;;;22.00;81.70;;;;;;5069721;28;20429;-68
2023/09/21 10:16:04;;;;;;;2.70;1.83;;;22.00;82.30;;;;;;5069079;28;20946;-67
2023/09/21 10:18:33;;;;;;;3.50;2.30;;;22.10;81.20;;;;;;5070160;28;20549;-67
2023/09/21 10:21:12;;;;;;;2.95;1.98;;;22.10;81.60;;;;;;5074930;28;20427;-67
2023/09/21 10:23:41;;;;;;;4.88;2.40;;;22.10;81.80;;;;;;5072510;28;20423;-67
2023/09/21 10:26:11;;;;;;;2.85;2.10;;;22.00;81.70;;;;;;5076588;28;20519;-67
2023/09/21 10:28:39;;;;;;;2.75;2.10;;;22.00;81.70;;;;;;5069481;28;20474;-67
2023/09/21 10:31:24;;;;;;;2.00;1.80;;;22.10;81.00;;;;;;5071210;28;20502;-67
2023/09/21 10:34:18;;;;;;;3.17;2.05;;;22.10;80.60;;;;;;5070119;28;20503;-67
2023/09/21 10:36:50;;;;;;;4.37;1.87;;;22.10;80.40;;;;;;5072854;28;20486;-68
2023/09/21 10:39:24;;;;;;;2.70;2.27;;;22.10;79.70;;;;;;5065999;28;20435;-67
2023/09/21 10:41:53;;;;;;;3.08;2.20;;;22.10;80.50;;;;;;5073008;28;20419;-67
2023/09/21 10:44:59;;;;;;;2.50;2.20;;;22.20;80.30;;;;;;5069302;28;20431;-67
2023/09/21 10:47:35;;;;;;;3.85;2.08;;;22.20;80.40;;;;;;5067072;28;20509;-67
2023/09/21 10:50:03;;;;;;;3.25;2.00;;;22.30;80.00;;;;;;5077697;28;20453;-67
2023/09/21 10:52:32;;;;;;;3.45;2.03;;;22.20;79.20;;;;;;5080690;28;20433;-67
2023/09/21 10:54:59;;;;;;;3.33;2.00;;;22.30;79.60;;;;;;5069004;28;20425;-67
2023/09/21 10:57:27;;;;;;;2.72;1.83;;;22.40;78.80;;;;;;5072025;28;20435;-68
2023/09/21 10:59:55;;;;;;;4.10;2.00;;;22.60;77.90;;;;;;5077966;28;20436;-68
2023/09/21 11:02:23;;;;;;;2.50;1.90;;;22.60;77.60;;;;;;5079302;28;20520;-68
2023/09/21 11:04:52;;;;;;;3.20;2.00;;;22.60;77.60;;;;;;5067062;28;20436;-67
2023/09/21 11:07:21;;;;;;;2.67;1.90;;;22.70;77.80;;;;;;5067868;28;20428;-69
2023/09/21 11:09:49;;;;;;;2.67;2.00;;;22.80;77.10;;;;;;5069403;28;20898;-69
2023/09/21 11:12:17;;;;;;;3.30;1.70;;;22.90;76.70;;;;;;5073606;28;20436;-69
2023/09/21 11:14:45;;;;;;;2.95;1.63;;;22.90;76.80;;;;;;5069548;28;20428;-68
2023/09/21 11:17:12;;;;;;;3.75;1.80;;;22.80;76.00;;;;;;5074819;28;20427;-69
2023/09/21 11:19:41;;;;;;;3.85;2.03;;;22.80;76.80;;;;;;5069732;28;20430;-68
2023/09/21 11:22:09;;;;;;;3.88;2.10;;;22.70;76.00;;;;;;5073243;28;20433;-69
2023/09/21 11:24:37;;;;;;;2.22;1.70;;;22.70;77.00;;;;;;5069648;28;20435;-68
2023/09/21 11:27:09;;;;;;;3.80;1.95;;;22.70;77.50;;;;;;5072953;28;20424;-69
2023/09/21 11:29:38;;;;;;;2.75;1.60;;;22.70;76.60;;;;;;5073769;28;20438;-68
2023/09/21 11:32:07;;;;;;;3.15;2.13;;;22.70;76.50;;;;;;5070118;28;20430;-68
2023/09/21 11:34:36;;;;;;;2.13;1.73;;;22.60;77.10;;;;;;5069270;28;20510;-68
2023/09/21 11:37:05;;;;;;;2.53;1.88;;;22.70;77.70;;;;;;5070958;28;20430;-68
2023/09/21 11:39:32;;;;;;;2.42;1.90;;;22.70;78.00;;;;;;5068043;28;20941;-68
2023/09/21 11:41:58;;;;;;;2.55;1.70;;;22.70;77.30;;;;;;5071936;28;20508;-68
2023/09/21 11:44:30;;;;;;;2.40;1.67;;;22.60;77.40;;;;;;5070211;28;20434;-69
2023/09/21 11:46:58;;;;;;;3.17;1.80;;;22.50;77.80;;;;;;5076754;28;20421;-68
2023/09/21 11:49:40;;;;;;;3.15;1.92;;;22.50;78.10;;;;;;5072107;28;20429;-68
2023/09/21 11:52:09;;;;;;;2.90;1.75;;;22.50;78.00;;;;;;5073497;28;20435;-68
2023/09/21 11:54:38;;;;;;;2.53;2.30;;;22.50;77.70;;;;;;5073927;28;20482;-70
2023/09/21 11:57:06;;;;;;;3.50;2.10;;;22.40;77.20;;;;;;5075000;28;20959;-70
2023/09/21 11:59:38;;;;;;;3.10;2.58;;;22.40;77.60;;;;;;5068115;28;20934;-70
2023/09/21 12:02:09;;;;;;;3.63;2.00;;;22.40;78.50;;;;;;5068591;28;21006;-69
2023/09/21 12:04:37;;;;;;;3.83;2.38;;;22.50;78.10;;;;;;5070239;28;20438;-70
2023/09/21 12:07:05;;;;;;;3.20;1.85;;;22.50;77.00;;;;;;5067731;28;20917;-70
2023/09/21 12:09:36;;;;;;;3.22;2.10;;;22.50;76.90;;;;;;5068391;28;20407;-70
2023/09/21 12:12:04;;;;;;;3.30;2.03;;;22.50;77.10;;;;;;5069851;28;20431;-70
2023/09/21 12:14:30;;;;;;;2.38;1.90;;;22.60;77.20;;;;;;5069213;28;20431;-69
2023/09/21 12:17:02;;;;;;;2.63;2.00;;;22.60;77.60;;;;;;5076712;28;20435;-70
2023/09/21 12:19:30;;;;;;;3.23;2.13;;;22.60;77.10;;;;;;5072173;28;20515;-70
2023/09/21 12:21:59;;;;;;;3.30;2.20;;;22.50;76.90;;;;;;5070190;28;20436;-69
2023/09/21 12:24:27;;;;;;;3.10;2.00;;;22.50;77.60;;;;;;5072197;28;20415;-65
2023/09/21 12:26:55;;;;;;;2.38;2.10;;;22.40;77.90;;;;;;5070841;28;20741;-66
2023/09/21 12:29:22;;;;;;;4.32;2.15;;;22.40;79.50;;;;;;5069995;28;20487;-66
2023/09/21 12:31:50;;;;;;;3.85;2.00;;;22.30;79.50;;;;;;5074347;28;20539;-66
2023/09/21 12:34:19;;;;;;;3.88;1.80;;;22.20;79.60;;;;;;5071894;28;20493;-66
2023/09/21 12:36:48;;;;;;;2.75;2.10;;;22.20;80.10;;;;;;5070536;28;20455;-67
2023/09/21 12:39:15;;;;;;;2.60;1.80;;;22.20;80.40;;;;;;5068705;28;20510;-67
2023/09/21 12:41:43;;;;;;;2.50;1.80;;;22.20;79.90;;;;;;5072398;28;20806;-67
2023/09/21 12:44:11;;;;;;;2.50;2.00;;;22.20;80.20;;;;;;5070362;28;20476;-67
2023/09/21 12:46:38;;;;;;;2.92;1.95;;;22.20;81.00;;;;;;5071702;28;20425;-67
2023/09/21 12:49:05;;;;;;;3.95;2.10;;;22.30;81.50;;;;;;5076344;28;20421;-67
2023/09/21 12:51:34;;;;;;;4.10;2.33;;;22.20;82.30;;;;;;5075369;28;20434;-67
2023/09/21 12:54:01;;;;;;;3.40;2.10;;;22.20;83.20;;;;;;5072708;28;20426;-67